createdAt,value
2023-01-12T00:02:47.110Z,5.93
2023-01-12T00:05:50.080Z,5.93
2023-01-12T00:08:58.380Z,5.94
2023-01-12T00:12:03.233Z,5.92
2023-01-12T00:15:09.946Z,5.88
2023-01-12T00:18:16.361Z,5.93
2023-01-12T00:21:20.000Z,5.96
2023-01-12T00:24:25.546Z,5.90
2023-01-12T00:27:28.720Z,5.86
2023-01-12T00:30:33.318Z,5.82
2023-01-12T00:33:42.174Z,5.86
2023-01-12T00:36:46.703Z,5.79
2023-01-12T00:40:01.952Z,5.79
2023-01-12T00:43:23.405Z,5.76
2023-01-12T00:46:33.235Z,5.69
2023-01-12T00:49:37.592Z,5.63
2023-01-12T00:52:42.223Z,5.65
2023-01-12T00:55:47.748Z,5.66
2023-01-12T00:58:50.789Z,5.66
2023-01-12T01:01:56.395Z,5.72
2023-01-12T01:05:00.585Z,5.71
2023-01-12T01:08:05.790Z,5.69
2023-01-12T01:11:17.109Z,5.69
2023-01-12T01:14:20.275Z,5.74
2023-01-12T01:17:24.976Z,5.65
2023-01-12T01:20:30.047Z,5.70
2023-01-12T01:23:37.064Z,5.72
2023-01-12T01:26:41.010Z,5.80
2023-01-12T01:29:46.910Z,5.79
2023-01-12T01:32:52.724Z,5.85
2023-01-12T01:35:57.489Z,5.82
2023-01-12T01:39:00.720Z,5.77
2023-01-12T01:42:03.782Z,5.71
2023-01-12T01:45:10.734Z,5.77
2023-01-12T01:48:17.625Z,5.88
2023-01-12T01:51:25.417Z,5.80
2023-01-12T01:54:32.188Z,5.90
2023-01-12T01:57:43.775Z,5.95
2023-01-12T02:00:47.823Z,5.96
2023-01-12T02:03:54.764Z,6.01
2023-01-12T02:06:58.805Z,6.01
2023-01-12T02:10:02.733Z,6.03
2023-01-12T02:13:23.604Z,6.06
2023-01-12T02:16:31.916Z,6.10
2023-01-12T02:20:18.155Z,6.13
2023-01-12T02:24:08.411Z,6.11
2023-01-12T02:27:35.034Z,6.14
2023-01-12T02:31:18.077Z,6.15
2023-01-12T02:34:38.564Z,6.18
2023-01-12T02:37:49.706Z,6.16
2023-01-12T02:41:04.501Z,6.14
2023-01-12T02:44:11.655Z,6.15
2023-01-12T02:47:26.324Z,6.13
2023-01-12T02:50:37.606Z,6.14
2023-01-12T02:53:46.014Z,6.17
2023-01-12T02:56:52.280Z,6.19
2023-01-12T02:59:56.737Z,6.19
2023-01-12T03:03:02.969Z,6.19
2023-01-12T03:06:10.016Z,6.16
2023-01-12T03:09:15.729Z,6.17
2023-01-12T03:12:26.795Z,6.14
2023-01-12T03:15:30.405Z,6.15
2023-01-12T03:18:39.617Z,6.16
2023-01-12T03:21:49.343Z,6.16
2023-01-12T03:24:58.669Z,6.21
2023-01-12T03:28:06.025Z,6.22
2023-01-12T03:31:13.040Z,6.25
2023-01-12T03:34:17.604Z,6.26
2023-01-12T03:37:28.965Z,6.24
2023-01-12T03:40:38.835Z,6.29
2023-01-12T03:43:48.403Z,6.33
2023-01-12T03:46:57.475Z,6.34
2023-01-12T03:50:07.572Z,6.34
2023-01-12T03:53:13.357Z,6.32
2023-01-12T03:56:19.224Z,6.34
2023-01-12T03:59:23.064Z,6.30
2023-01-12T04:02:26.649Z,6.36
2023-01-12T04:05:30.924Z,6.36
2023-01-12T04:08:35.942Z,6.38
2023-01-12T04:11:56.286Z,6.41
2023-01-12T04:14:59.913Z,6.41
2023-01-12T04:18:02.958Z,6.45
2023-01-12T04:21:27.349Z,6.49
2023-01-12T04:24:29.369Z,6.54
2023-01-12T04:27:32.400Z,6.53
2023-01-12T04:30:35.745Z,6.51
2023-01-12T04:33:38.712Z,6.51
2023-01-12T04:36:44.060Z,6.54
2023-01-12T04:39:47.069Z,6.54
2023-01-12T04:43:08.237Z,6.58
2023-01-12T04:46:11.883Z,6.60
2023-01-12T04:49:18.215Z,6.60
2023-01-12T04:52:24.697Z,6.59
2023-01-12T04:55:27.773Z,6.60
2023-01-12T04:58:34.922Z,6.65
2023-01-12T05:01:39.325Z,6.64
2023-01-12T05:04:42.782Z,6.65
2023-01-12T05:08:01.077Z,6.68
2023-01-12T05:11:05.532Z,6.72
2023-01-12T05:14:08.867Z,6.74
2023-01-12T05:17:12.086Z,6.76
2023-01-12T05:20:15.444Z,6.79
2023-01-12T05:23:20.130Z,6.86
2023-01-12T05:26:24.813Z,6.91
2023-01-12T05:29:30.025Z,6.84
2023-01-12T05:32:39.360Z,6.89
2023-01-12T05:35:42.673Z,6.94
2023-01-12T05:38:47.352Z,7.03
2023-01-12T05:42:07.776Z,7.06
2023-01-12T05:45:12.556Z,7.04
2023-01-12T05:48:15.793Z,7.08
2023-01-12T05:51:19.544Z,7.18
2023-01-12T05:54:24.414Z,7.17
2023-01-12T05:57:27.649Z,7.18
2023-01-12T06:00:31.326Z,7.22
2023-01-12T06:03:34.499Z,7.17
2023-01-12T06:06:40.883Z,7.15
2023-01-12T06:09:46.723Z,7.20
2023-01-12T06:13:09.429Z,7.17
2023-01-12T06:16:13.732Z,7.19
2023-01-12T06:19:16.829Z,7.21
2023-01-12T06:22:20.588Z,7.25
2023-01-12T06:25:25.427Z,7.28
2023-01-12T06:28:28.576Z,7.32
2023-01-12T06:31:31.863Z,7.29
2023-01-12T06:34:35.795Z,7.28
2023-01-12T06:37:38.794Z,7.25
2023-01-12T06:40:43.464Z,7.21
2023-01-12T06:43:51.701Z,7.20
2023-01-12T06:46:56.954Z,7.22
2023-01-12T06:50:00.185Z,7.26
2023-01-12T06:53:05.986Z,7.29
2023-01-12T06:56:10.438Z,7.29
2023-01-12T06:59:15.908Z,7.22
2023-01-12T07:02:18.930Z,7.28
2023-01-12T07:05:25.037Z,7.24
2023-01-12T07:08:28.658Z,7.25
2023-01-12T07:11:33.442Z,7.25
2023-01-12T07:14:36.615Z,7.23
2023-01-12T07:17:43.285Z,7.18
2023-01-12T07:20:48.728Z,7.17
2023-01-12T07:23:51.729Z,7.18
2023-01-12T07:26:58.160Z,7.16
2023-01-12T07:30:01.213Z,7.22
2023-01-12T07:33:10.103Z,7.28
2023-01-12T07:36:13.371Z,7.30
2023-01-12T07:39:18.646Z,7.31
2023-01-12T07:42:28.655Z,7.32
2023-01-12T07:45:38.764Z,7.36
2023-01-12T07:48:43.805Z,7.40
2023-01-12T07:51:46.982Z,7.43
2023-01-12T07:54:50.395Z,7.39
2023-01-12T07:57:59.813Z,7.47
2023-01-12T08:01:06.401Z,7.57
2023-01-12T08:04:09.821Z,7.59
2023-01-12T08:07:17.567Z,7.65
2023-01-12T08:10:20.862Z,7.66
2023-01-12T08:13:25.683Z,7.73
2023-01-12T08:16:34.189Z,7.73
2023-01-12T08:19:41.622Z,7.75
2023-01-12T08:22:51.682Z,7.76
2023-01-12T08:25:59.261Z,7.80
2023-01-12T08:29:11.576Z,7.81
2023-01-12T08:32:18.755Z,7.88
2023-01-12T08:35:24.622Z,7.95
2023-01-12T08:38:27.555Z,8.00
2023-01-12T08:41:33.200Z,8.02
2023-01-12T08:44:37.790Z,8.05
2023-01-12T08:47:44.316Z,8.10
2023-01-12T08:50:47.463Z,8.11
2023-01-12T08:53:53.021Z,8.11
2023-01-12T08:56:55.990Z,8.14
2023-01-12T09:00:00.351Z,8.18
2023-01-12T09:03:03.336Z,8.24
2023-01-12T09:06:18.376Z,8.26
2023-01-12T09:09:22.478Z,8.31
2023-01-12T09:12:28.982Z,8.38
2023-01-12T09:15:34.696Z,8.43
2023-01-12T09:18:38.750Z,8.45
2023-01-12T09:21:42.886Z,8.45
2023-01-12T09:24:46.335Z,8.55
2023-01-12T09:27:49.379Z,8.55
2023-01-12T09:30:56.772Z,8.59
2023-01-12T09:34:01.907Z,8.60
2023-01-12T09:37:04.910Z,8.62
2023-01-12T09:40:11.332Z,8.66
2023-01-12T09:43:34.494Z,8.68
2023-01-12T09:46:57.777Z,8.77
2023-01-12T09:50:10.123Z,8.87
2023-01-12T09:53:19.469Z,8.90
2023-01-12T09:56:30.308Z,8.91
2023-01-12T09:59:45.173Z,8.93
2023-01-12T10:02:53.925Z,8.97
2023-01-12T10:06:00.521Z,9.00
2023-01-12T10:09:06.157Z,9.02
2023-01-12T10:12:24.026Z,9.11
2023-01-12T10:15:45.699Z,9.18
2023-01-12T10:18:55.730Z,9.25
2023-01-12T10:21:58.992Z,9.31
2023-01-12T10:25:03.632Z,9.32
2023-01-12T10:28:09.628Z,9.31
2023-01-12T10:31:21.291Z,9.29
2023-01-12T10:34:25.767Z,9.34
2023-01-12T10:37:29.313Z,9.34
2023-01-12T10:40:34.964Z,9.36
2023-01-12T10:43:39.491Z,9.35
2023-01-12T10:46:42.771Z,9.34
2023-01-12T10:49:47.087Z,9.34
2023-01-12T10:52:55.326Z,9.34
2023-01-12T10:55:59.410Z,9.31
2023-01-12T10:59:06.384Z,9.33
2023-01-12T11:02:17.039Z,9.33
2023-01-12T11:05:36.745Z,9.34
2023-01-12T11:08:40.014Z,9.37
2023-01-12T11:11:43.147Z,9.34
2023-01-12T11:15:01.386Z,9.27
2023-01-12T11:18:25.688Z,9.21
2023-01-12T11:21:35.675Z,9.09
2023-01-12T11:24:44.899Z,8.98
2023-01-12T11:27:53.176Z,8.92
2023-01-12T11:30:59.828Z,8.89
2023-01-12T11:34:10.540Z,8.89
2023-01-12T11:37:18.719Z,8.88
2023-01-12T11:40:30.831Z,8.86
2023-01-12T11:43:52.460Z,8.80
2023-01-12T11:47:05.860Z,8.77
2023-01-12T11:50:17.467Z,8.71
2023-01-12T11:53:25.085Z,8.71
2023-01-12T11:57:01.423Z,8.72
2023-01-12T12:00:23.252Z,8.80
2023-01-12T12:03:50.684Z,8.79
2023-01-12T12:07:09.772Z,8.84
2023-01-12T12:10:23.769Z,8.84
2023-01-12T12:13:40.364Z,8.89
2023-01-12T12:16:58.931Z,8.94
2023-01-12T12:20:19.229Z,9.03
2023-01-12T12:23:32.901Z,9.12
2023-01-12T12:26:43.725Z,9.16
2023-01-12T12:30:15.098Z,9.18
2023-01-12T12:33:31.466Z,9.29
2023-01-12T12:36:43.669Z,9.37
2023-01-12T12:39:57.317Z,9.39
2023-01-12T12:43:32.150Z,9.45
2023-01-12T12:46:48.144Z,9.52
2023-01-12T12:49:55.432Z,9.52
2023-01-12T12:53:21.413Z,9.47
2023-01-12T12:56:26.444Z,9.51
2023-01-12T13:00:00.524Z,9.52
2023-01-12T13:03:13.571Z,9.54
2023-01-12T13:06:24.216Z,9.59
2023-01-12T13:09:53.499Z,9.60
2023-01-12T13:13:02.434Z,9.58
2023-01-12T13:16:47.034Z,9.58
2023-01-12T13:19:59.769Z,9.57
2023-01-12T13:23:05.129Z,9.62
2023-01-12T13:26:45.777Z,9.63
2023-01-12T13:29:52.837Z,9.60
2023-01-12T13:33:03.476Z,9.61
2023-01-12T13:36:12.223Z,9.58
2023-01-12T13:39:18.247Z,9.59
2023-01-12T13:42:43.725Z,9.59
2023-01-12T13:45:53.764Z,9.60
2023-01-12T13:48:58.720Z,9.58
2023-01-12T13:52:12.014Z,9.61
2023-01-12T13:55:24.831Z,9.66
2023-01-12T13:58:29.655Z,9.68
2023-01-12T14:01:37.232Z,9.67
2023-01-12T14:05:08.725Z,9.70
2023-01-12T14:08:50.695Z,9.71
2023-01-12T14:12:20.185Z,9.71
2023-01-12T14:15:51.501Z,9.71
2023-01-12T14:18:54.707Z,9.69
2023-01-12T14:22:03.372Z,9.74
2023-01-12T14:25:20.475Z,9.74
2023-01-12T14:28:25.700Z,9.75
2023-01-12T14:31:37.717Z,9.78
2023-01-12T14:34:46.802Z,9.84
2023-01-12T14:37:56.840Z,9.85
2023-01-12T14:41:06.780Z,9.84
2023-01-12T14:44:37.320Z,9.88
2023-01-12T14:47:41.313Z,9.87
2023-01-12T14:51:03.315Z,9.83
2023-01-12T14:54:24.898Z,9.82
2023-01-12T14:57:34.645Z,9.87
2023-01-12T15:00:43.796Z,9.86
2023-01-12T15:03:48.995Z,9.88
2023-01-12T15:07:02.849Z,9.86
2023-01-12T15:10:31.079Z,9.86
2023-01-12T15:13:36.467Z,9.93
2023-01-12T15:17:01.728Z,9.95
2023-01-12T15:20:39.357Z,9.94
2023-01-12T15:24:00.098Z,9.96
2023-01-12T15:27:06.614Z,9.97
2023-01-12T15:30:12.764Z,9.94
2023-01-12T15:33:16.742Z,9.89
2023-01-12T15:36:19.915Z,9.86
2023-01-12T15:39:23.144Z,9.90
2023-01-12T15:42:27.610Z,9.96
2023-01-12T15:45:35.497Z,9.98
2023-01-12T15:48:41.870Z,9.99
2023-01-12T15:51:50.039Z,9.98
2023-01-12T15:54:57.533Z,9.99
2023-01-12T15:58:07.929Z,9.96
2023-01-12T16:01:18.725Z,9.95
2023-01-12T16:04:43.135Z,9.96
2023-01-12T16:07:48.581Z,10.02
2023-01-12T16:11:11.527Z,10.06
2023-01-12T16:14:18.092Z,10.03
2023-01-12T16:17:22.207Z,10.09
2023-01-12T16:20:26.981Z,10.09
2023-01-12T16:23:34.148Z,10.13
2023-01-12T16:26:37.640Z,10.11
2023-01-12T16:29:42.621Z,10.08
2023-01-12T16:32:54.244Z,10.07
2023-01-12T16:36:03.866Z,10.10
2023-01-12T16:39:13.131Z,10.10
2023-01-12T16:42:24.842Z,10.07
2023-01-12T16:45:30.642Z,10.07
2023-01-12T16:48:39.440Z,10.13
2023-01-12T16:51:46.213Z,10.10
2023-01-12T16:54:53.727Z,10.11
2023-01-12T16:57:58.249Z,10.17
2023-01-12T17:01:16.458Z,10.19
2023-01-12T17:04:54.896Z,10.21
2023-01-12T17:08:07.038Z,10.22
2023-01-12T17:11:16.447Z,10.26
2023-01-12T17:14:33.418Z,10.25
2023-01-12T17:17:45.536Z,10.22
2023-01-12T17:21:10.902Z,10.25
2023-01-12T17:24:16.857Z,10.21
2023-01-12T17:27:26.284Z,10.18
2023-01-12T17:30:45.523Z,10.23
2023-01-12T17:34:01.285Z,10.25
2023-01-12T17:37:08.318Z,10.26
2023-01-12T17:40:18.495Z,10.28
2023-01-12T17:43:24.894Z,10.24
2023-01-12T17:46:32.034Z,10.27
2023-01-12T17:49:42.930Z,10.31
2023-01-12T17:52:58.321Z,10.30
2023-01-12T17:56:07.936Z,10.26
2023-01-12T17:59:22.961Z,10.31
2023-01-12T18:02:26.531Z,10.34
2023-01-12T18:05:31.750Z,10.33
2023-01-12T18:08:35.671Z,10.36
2023-01-12T18:11:54.750Z,10.31
2023-01-12T18:15:00.229Z,10.36
2023-01-12T18:18:06.959Z,10.33
2023-01-12T18:21:17.553Z,10.33
2023-01-12T18:24:23.939Z,10.36
2023-01-12T18:27:29.532Z,10.33
2023-01-12T18:30:33.027Z,10.36
2023-01-12T18:33:39.972Z,10.41
2023-01-12T18:36:44.599Z,10.39
2023-01-12T18:39:53.900Z,10.41
2023-01-12T18:42:57.807Z,10.43
2023-01-12T18:46:08.843Z,10.43
2023-01-12T18:49:14.827Z,10.42
2023-01-12T18:52:39.589Z,10.43
2023-01-12T18:55:45.762Z,10.46
2023-01-12T18:58:50.615Z,10.44
2023-01-12T19:01:56.663Z,10.45
2023-01-12T19:05:19.988Z,10.52
2023-01-12T19:08:42.356Z,10.49
2023-01-12T19:11:45.536Z,10.48
2023-01-12T19:15:06.293Z,10.52
2023-01-12T19:18:13.447Z,10.50
2023-01-12T19:21:34.610Z,10.52
2023-01-12T19:24:56.902Z,10.53
2023-01-12T19:28:18.558Z,10.52
2023-01-12T19:31:21.637Z,10.51
2023-01-12T19:34:25.702Z,10.56
2023-01-12T19:37:28.764Z,10.61
2023-01-12T19:40:45.318Z,10.64
2023-01-12T19:43:54.931Z,10.62
2023-01-12T19:46:58.588Z,10.63
2023-01-12T19:50:14.016Z,10.67
2023-01-12T19:53:23.361Z,10.60
2023-01-12T19:56:35.406Z,10.52
2023-01-12T19:59:50.734Z,10.47
2023-01-12T20:02:57.395Z,10.37
2023-01-12T20:06:09.126Z,10.30
2023-01-12T20:09:16.023Z,10.20
2023-01-12T20:12:21.885Z,10.13
2023-01-12T20:15:25.593Z,10.01
2023-01-12T20:18:28.798Z,9.94
2023-01-12T20:21:31.958Z,9.85
2023-01-12T20:24:38.042Z,9.82
2023-01-12T20:27:42.637Z,9.78
2023-01-12T20:30:49.135Z,9.74
2023-01-12T20:39:01.660Z,9.67
2023-01-12T20:42:51.576Z,9.60
2023-01-12T20:46:30.468Z,9.56
2023-01-12T20:49:35.063Z,9.53
2023-01-12T20:52:47.919Z,9.51
2023-01-12T20:56:16.557Z,9.50
2023-01-12T20:59:20.042Z,9.46
2023-01-12T21:02:27.487Z,9.41
2023-01-12T21:05:35.412Z,9.37
2023-01-12T21:08:50.221Z,9.34
2023-01-12T21:11:53.738Z,9.35
2023-01-12T21:14:56.857Z,9.33
2023-01-12T21:18:04.928Z,9.36
2023-01-12T21:21:08.743Z,9.34
2023-01-12T21:24:12.209Z,9.34
2023-01-12T21:27:17.686Z,9.32
2023-01-12T21:30:21.080Z,9.29
2023-01-12T21:33:26.727Z,9.27
2023-01-12T21:36:29.841Z,9.28
2023-01-12T21:39:32.857Z,9.23
2023-01-12T21:42:54.990Z,9.21
2023-01-12T21:46:05.083Z,9.26
2023-01-12T21:49:09.557Z,9.23
2023-01-12T21:52:15.044Z,9.24
2023-01-12T21:55:20.675Z,9.22
2023-01-12T21:58:24.604Z,9.27
2023-01-12T22:01:29.867Z,9.25
2023-01-12T22:04:36.695Z,9.28
2023-01-12T22:07:39.945Z,9.26
2023-01-12T22:10:46.574Z,9.23
2023-01-12T22:13:54.878Z,9.22
2023-01-12T22:16:58.195Z,9.21
2023-01-12T22:20:02.666Z,9.15
2023-01-12T22:23:05.765Z,9.12
2023-01-12T22:26:18.891Z,9.14
2023-01-12T22:29:24.326Z,9.14
2023-01-12T22:32:27.623Z,9.12
2023-01-12T22:35:32.424Z,9.15
2023-01-12T22:38:35.903Z,9.11
2023-01-12T22:41:40.536Z,9.14
2023-01-12T22:44:43.562Z,9.15
2023-01-12T22:47:54.895Z,9.13
2023-01-12T22:51:01.652Z,9.16
2023-01-12T22:54:07.759Z,9.15
2023-01-12T22:57:15.435Z,9.14
2023-01-12T23:00:21.619Z,9.16
2023-01-12T23:03:26.910Z,9.14
2023-01-12T23:06:31.380Z,9.16
2023-01-12T23:09:35.135Z,9.18
2023-01-12T23:12:38.491Z,9.19
2023-01-12T23:15:43.848Z,9.18
2023-01-12T23:18:49.988Z,9.18
2023-01-12T23:22:00.625Z,9.18
2023-01-12T23:25:04.173Z,9.19
2023-01-12T23:28:08.751Z,9.22
2023-01-12T23:31:17.004Z,9.20
2023-01-12T23:34:20.300Z,9.19
2023-01-12T23:37:27.206Z,9.18
2023-01-12T23:40:31.759Z,9.19
2023-01-12T23:43:37.555Z,9.20
2023-01-12T23:46:43.207Z,9.18
2023-01-12T23:49:51.221Z,9.19
2023-01-12T23:53:03.159Z,9.26
2023-01-12T23:56:08.549Z,9.27
2023-01-12T23:59:17.188Z,9.28
